Terminal Aerodrome Forecast
Issued by NWS

Home | Current Version | Previous Version | Graphics & Text | Print | Product List | Glossary On
Versions: 1 2 3 4 5 6 7 8 9 10 11 12 13 14 15 16 17 18 19 20 21 22 23 24 25 26 27 28 29 30 31 32
427
FTUS43 KBIS 210847 AAA
TAFMOT
TAF AMD
KMOT 210847Z 2109/2206 VRB03KT 1/2SM FG SCT002
     FM211500 18005KT P6SM FEW070
     FM220500 20007KT P6SM FEW200=

USA.gov is the U.S. government's official web portal to all federal, state and local government web resources and services.